sensor_id;sensor_type;location;lat;lon;timestamp;P1;durP1;ratioP1;P2;durP2;ratioP2
14817;SDS011;7500;57.698;11.986;2023-02-08T00:01:51;25.33;;;6.13;;
14817;SDS011;7500;57.698;11.986;2023-02-08T00:04:19;21.70;;;6.07;;
14817;SDS011;7500;57.698;11.986;2023-02-08T00:06:46;20.90;;;6.53;;
14817;SDS011;7500;57.698;11.986;2023-02-08T00:09:13;21.33;;;6.40;;
14817;SDS011;7500;57.698;11.986;2023-02-08T00:11:40;22.17;;;6.60;;
14817;SDS011;7500;57.698;11.986;2023-02-08T00:14:07;24.80;;;6.50;;
14817;SDS011;7500;57.698;11.986;2023-02-08T00:16:34;23.03;;;6.50;;
14817;SDS011;7500;57.698;11.986;2023-02-08T00:19:01;23.63;;;6.40;;
14817;SDS011;7500;57.698;11.986;2023-02-08T00:21:29;28.03;;;6.33;;
14817;SDS011;7500;57.698;11.986;2023-02-08T00:23:56;18.43;;;6.93;;
14817;SDS011;7500;57.698;11.986;2023-02-08T00:26:23;24.60;;;7.07;;
14817;SDS011;7500;57.698;11.986;2023-02-08T00:28:50;28.73;;;6.70;;
14817;SDS011;7500;57.698;11.986;2023-02-08T00:31:17;24.43;;;6.93;;
14817;SDS011;7500;57.698;11.986;2023-02-08T00:33:44;21.40;;;6.63;;
14817;SDS011;7500;57.698;11.986;2023-02-08T00:36:11;23.80;;;7.07;;
14817;SDS011;7500;57.698;11.986;2023-02-08T00:38:39;24.30;;;7.10;;
14817;SDS011;7500;57.698;11.986;2023-02-08T00:41:06;29.87;;;7.13;;
14817;SDS011;7500;57.698;11.986;2023-02-08T00:43:33;24.37;;;6.90;;
14817;SDS011;7500;57.698;11.986;2023-02-08T00:46:00;30.43;;;7.43;;
14817;SDS011;7500;57.698;11.986;2023-02-08T00:48:27;25.40;;;8.37;;
14817;SDS011;7500;57.698;11.986;2023-02-08T00:50:57;23.93;;;7.33;;
14817;SDS011;7500;57.698;11.986;2023-02-08T00:53:25;23.57;;;6.97;;
14817;SDS011;7500;57.698;11.986;2023-02-08T00:55:54;22.90;;;7.27;;
14817;SDS011;7500;57.698;11.986;2023-02-08T00:58:21;21.83;;;6.70;;
14817;SDS011;7500;57.698;11.986;2023-02-08T01:00:49;24.73;;;6.57;;
14817;SDS011;7500;57.698;11.986;2023-02-08T01:03:17;29.00;;;6.77;;
14817;SDS011;7500;57.698;11.986;2023-02-08T01:05:45;28.10;;;7.80;;
14817;SDS011;7500;57.698;11.986;2023-02-08T01:08:12;26.10;;;7.50;;
14817;SDS011;7500;57.698;11.986;2023-02-08T01:10:39;22.70;;;6.57;;
14817;SDS011;7500;57.698;11.986;2023-02-08T01:13:08;25.77;;;6.97;;
14817;SDS011;7500;57.698;11.986;2023-02-08T01:15:35;26.27;;;6.67;;
14817;SDS011;7500;57.698;11.986;2023-02-08T01:18:02;25.70;;;6.80;;
14817;SDS011;7500;57.698;11.986;2023-02-08T01:20:29;22.80;;;7.57;;
14817;SDS011;7500;57.698;11.986;2023-02-08T01:22:56;22.40;;;6.90;;
14817;SDS011;7500;57.698;11.986;2023-02-08T01:25:23;26.03;;;7.23;;
14817;SDS011;7500;57.698;11.986;2023-02-08T01:27:50;25.77;;;7.20;;
14817;SDS011;7500;57.698;11.986;2023-02-08T01:30:21;24.10;;;7.20;;
14817;SDS011;7500;57.698;11.986;2023-02-08T01:32:47;22.07;;;6.97;;
14817;SDS011;7500;57.698;11.986;2023-02-08T01:35:14;27.37;;;7.17;;
14817;SDS011;7500;57.698;11.986;2023-02-08T01:37:41;26.40;;;7.23;;
14817;SDS011;7500;57.698;11.986;2023-02-08T01:40:09;23.23;;;6.67;;
14817;SDS011;7500;57.698;11.986;2023-02-08T01:42:36;19.03;;;6.27;;
14817;SDS011;7500;57.698;11.986;2023-02-08T01:47:59;24.80;;;6.27;;
14817;SDS011;7500;57.698;11.986;2023-02-08T01:50:32;19.80;;;6.37;;
14817;SDS011;7500;57.698;11.986;2023-02-08T01:53:02;31.20;;;6.67;;
14817;SDS011;7500;57.698;11.986;2023-02-08T01:55:30;20.90;;;6.90;;
14817;SDS011;7500;57.698;11.986;2023-02-08T01:58:01;23.77;;;6.60;;
14817;SDS011;7500;57.698;11.986;2023-02-08T02:00:32;18.53;;;6.53;;
14817;SDS011;7500;57.698;11.986;2023-02-08T02:02:59;20.40;;;5.93;;
14817;SDS011;7500;57.698;11.986;2023-02-08T02:05:29;23.20;;;7.53;;
14817;SDS011;7500;57.698;11.986;2023-02-08T02:08:00;21.77;;;6.83;;
14817;SDS011;7500;57.698;11.986;2023-02-08T02:10:28;20.33;;;6.07;;
14817;SDS011;7500;57.698;11.986;2023-02-08T02:12:57;23.40;;;6.60;;
14817;SDS011;7500;57.698;11.986;2023-02-08T02:15:29;24.37;;;6.63;;
14817;SDS011;7500;57.698;11.986;2023-02-08T02:17:57;19.77;;;6.07;;
14817;SDS011;7500;57.698;11.986;2023-02-08T02:20:27;24.37;;;6.97;;
14817;SDS011;7500;57.698;11.986;2023-02-08T02:23:15;24.63;;;6.53;;
14817;SDS011;7500;57.698;11.986;2023-02-08T02:26:13;21.57;;;6.10;;
14817;SDS011;7500;57.698;11.986;2023-02-08T02:32:04;17.43;;;5.93;;
14817;SDS011;7500;57.698;11.986;2023-02-08T02:34:42;20.17;;;6.47;;
14817;SDS011;7500;57.698;11.986;2023-02-08T02:37:18;21.87;;;6.50;;
14817;SDS011;7500;57.698;11.986;2023-02-08T02:39:59;20.30;;;6.90;;
14817;SDS011;7500;57.698;11.986;2023-02-08T02:42:34;27.00;;;6.43;;
14817;SDS011;7500;57.698;11.986;2023-02-08T02:45:26;25.07;;;6.30;;
14817;SDS011;7500;57.698;11.986;2023-02-08T02:48:01;22.07;;;6.60;;
14817;SDS011;7500;57.698;11.986;2023-02-08T02:50:35;19.80;;;5.97;;
14817;SDS011;7500;57.698;11.986;2023-02-08T02:53:09;23.63;;;6.50;;
14817;SDS011;7500;57.698;11.986;2023-02-08T02:55:44;23.97;;;7.07;;
14817;SDS011;7500;57.698;11.986;2023-02-08T02:58:16;19.33;;;6.20;;
14817;SDS011;7500;57.698;11.986;2023-02-08T03:00:50;24.80;;;6.67;;
14817;SDS011;7500;57.698;11.986;2023-02-08T03:03:21;18.17;;;6.07;;
14817;SDS011;7500;57.698;11.986;2023-02-08T03:05:50;22.30;;;6.40;;
14817;SDS011;7500;57.698;11.986;2023-02-08T03:08:31;20.53;;;6.83;;
14817;SDS011;7500;57.698;11.986;2023-02-08T03:11:15;25.73;;;6.50;;
14817;SDS011;7500;57.698;11.986;2023-02-08T03:13:58;26.30;;;6.53;;
14817;SDS011;7500;57.698;11.986;2023-02-08T03:16:37;24.80;;;7.30;;
14817;SDS011;7500;57.698;11.986;2023-02-08T03:19:18;25.73;;;7.30;;
14817;SDS011;7500;57.698;11.986;2023-02-08T03:21:53;22.17;;;6.57;;
14817;SDS011;7500;57.698;11.986;2023-02-08T03:24:25;25.40;;;7.13;;
14817;SDS011;7500;57.698;11.986;2023-02-08T03:26:56;23.37;;;6.63;;
14817;SDS011;7500;57.698;11.986;2023-02-08T03:29:32;22.40;;;7.27;;
14817;SDS011;7500;57.698;11.986;2023-02-08T03:32:08;19.77;;;6.47;;
14817;SDS011;7500;57.698;11.986;2023-02-08T03:34:43;23.83;;;7.10;;
14817;SDS011;7500;57.698;11.986;2023-02-08T03:37:14;28.03;;;7.10;;
14817;SDS011;7500;57.698;11.986;2023-02-08T03:39:45;20.27;;;6.47;;
14817;SDS011;7500;57.698;11.986;2023-02-08T03:42:16;24.73;;;7.93;;
14817;SDS011;7500;57.698;11.986;2023-02-08T03:44:48;23.33;;;7.00;;
14817;SDS011;7500;57.698;11.986;2023-02-08T03:47:21;20.80;;;7.33;;
14817;SDS011;7500;57.698;11.986;2023-02-08T03:49:51;23.90;;;6.93;;
14817;SDS011;7500;57.698;11.986;2023-02-08T03:52:20;20.97;;;7.27;;
14817;SDS011;7500;57.698;11.986;2023-02-08T03:54:50;18.00;;;6.70;;
14817;SDS011;7500;57.698;11.986;2023-02-08T03:57:20;18.07;;;7.33;;
14817;SDS011;7500;57.698;11.986;2023-02-08T03:59:51;22.63;;;7.00;;
14817;SDS011;7500;57.698;11.986;2023-02-08T04:02:22;29.17;;;7.50;;
14817;SDS011;7500;57.698;11.986;2023-02-08T04:04:54;22.67;;;7.37;;
14817;SDS011;7500;57.698;11.986;2023-02-08T04:07:22;21.67;;;7.00;;
14817;SDS011;7500;57.698;11.986;2023-02-08T04:09:49;27.17;;;7.83;;
14817;SDS011;7500;57.698;11.986;2023-02-08T04:12:16;23.30;;;7.90;;
14817;SDS011;7500;57.698;11.986;2023-02-08T04:14:43;26.70;;;7.87;;
14817;SDS011;7500;57.698;11.986;2023-02-08T04:17:10;23.17;;;7.07;;
14817;SDS011;7500;57.698;11.986;2023-02-08T04:19:37;25.13;;;7.63;;
14817;SDS011;7500;57.698;11.986;2023-02-08T04:22:05;22.07;;;6.70;;
14817;SDS011;7500;57.698;11.986;2023-02-08T04:24:32;17.43;;;6.70;;
14817;SDS011;7500;57.698;11.986;2023-02-08T04:26:59;20.87;;;7.50;;
14817;SDS011;7500;57.698;11.986;2023-02-08T04:29:26;21.10;;;6.93;;
14817;SDS011;7500;57.698;11.986;2023-02-08T04:31:53;25.87;;;7.27;;
14817;SDS011;7500;57.698;11.986;2023-02-08T04:34:20;19.03;;;6.87;;
14817;SDS011;7500;57.698;11.986;2023-02-08T04:36:47;22.07;;;7.87;;
14817;SDS011;7500;57.698;11.986;2023-02-08T04:39:16;22.83;;;7.70;;
14817;SDS011;7500;57.698;11.986;2023-02-08T04:41:42;23.00;;;7.90;;
14817;SDS011;7500;57.698;11.986;2023-02-08T04:44:09;27.77;;;8.00;;
14817;SDS011;7500;57.698;11.986;2023-02-08T04:46:36;22.33;;;8.40;;
14817;SDS011;7500;57.698;11.986;2023-02-08T04:49:03;22.53;;;8.00;;
14817;SDS011;7500;57.698;11.986;2023-02-08T04:51:30;27.67;;;8.47;;
14817;SDS011;7500;57.698;11.986;2023-02-08T04:53:57;28.30;;;8.73;;
14817;SDS011;7500;57.698;11.986;2023-02-08T04:56:25;28.60;;;8.47;;
14817;SDS011;7500;57.698;11.986;2023-02-08T04:58:52;25.23;;;7.80;;
14817;SDS011;7500;57.698;11.986;2023-02-08T05:01:19;25.03;;;8.33;;
14817;SDS011;7500;57.698;11.986;2023-02-08T05:03:46;31.40;;;9.17;;
14817;SDS011;7500;57.698;11.986;2023-02-08T05:06:13;28.43;;;9.27;;
14817;SDS011;7500;57.698;11.986;2023-02-08T05:08:40;26.60;;;8.77;;
14817;SDS011;7500;57.698;11.986;2023-02-08T05:11:07;30.10;;;8.80;;
14817;SDS011;7500;57.698;11.986;2023-02-08T05:13:35;38.73;;;9.63;;
14817;SDS011;7500;57.698;11.986;2023-02-08T05:16:02;27.03;;;9.17;;
14817;SDS011;7500;57.698;11.986;2023-02-08T05:18:29;23.03;;;9.40;;
14817;SDS011;7500;57.698;11.986;2023-02-08T05:20:56;25.80;;;9.33;;
14817;SDS011;7500;57.698;11.986;2023-02-08T05:23:25;25.67;;;8.33;;
14817;SDS011;7500;57.698;11.986;2023-02-08T05:25:53;29.70;;;9.43;;
14817;SDS011;7500;57.698;11.986;2023-02-08T05:28:20;28.07;;;9.50;;
14817;SDS011;7500;57.698;11.986;2023-02-08T05:30:48;29.97;;;9.47;;
14817;SDS011;7500;57.698;11.986;2023-02-08T05:33:15;27.37;;;9.27;;
14817;SDS011;7500;57.698;11.986;2023-02-08T05:35:43;31.07;;;9.77;;
14817;SDS011;7500;57.698;11.986;2023-02-08T05:38:10;27.93;;;9.43;;
14817;SDS011;7500;57.698;11.986;2023-02-08T05:40:37;31.50;;;10.00;;
14817;SDS011;7500;57.698;11.986;2023-02-08T05:43:04;27.00;;;9.70;;
14817;SDS011;7500;57.698;11.986;2023-02-08T05:45:31;25.90;;;9.67;;
14817;SDS011;7500;57.698;11.986;2023-02-08T05:48:00;24.77;;;9.63;;
14817;SDS011;7500;57.698;11.986;2023-02-08T05:50:27;28.87;;;9.90;;
14817;SDS011;7500;57.698;11.986;2023-02-08T05:52:54;28.27;;;9.83;;
14817;SDS011;7500;57.698;11.986;2023-02-08T05:55:21;36.57;;;9.80;;
14817;SDS011;7500;57.698;11.986;2023-02-08T05:57:47;27.27;;;9.27;;
14817;SDS011;7500;57.698;11.986;2023-02-08T06:00:15;33.77;;;10.07;;
14817;SDS011;7500;57.698;11.986;2023-02-08T06:02:42;27.17;;;9.57;;
14817;SDS011;7500;57.698;11.986;2023-02-08T06:05:10;33.00;;;10.33;;
14817;SDS011;7500;57.698;11.986;2023-02-08T06:07:37;44.70;;;11.37;;
14817;SDS011;7500;57.698;11.986;2023-02-08T06:10:05;33.97;;;11.30;;
14817;SDS011;7500;57.698;11.986;2023-02-08T06:12:32;38.70;;;11.43;;
14817;SDS011;7500;57.698;11.986;2023-02-08T06:14:59;34.20;;;11.23;;
14817;SDS011;7500;57.698;11.986;2023-02-08T06:17:26;34.87;;;11.27;;
14817;SDS011;7500;57.698;11.986;2023-02-08T06:19:53;42.13;;;11.27;;
14817;SDS011;7500;57.698;11.986;2023-02-08T06:22:21;39.60;;;11.77;;
14817;SDS011;7500;57.698;11.986;2023-02-08T06:24:48;35.07;;;12.43;;
14817;SDS011;7500;57.698;11.986;2023-02-08T06:27:15;35.10;;;12.23;;
14817;SDS011;7500;57.698;11.986;2023-02-08T06:29:42;41.50;;;12.57;;
14817;SDS011;7500;57.698;11.986;2023-02-08T06:32:09;36.50;;;12.33;;
14817;SDS011;7500;57.698;11.986;2023-02-08T06:34:36;35.70;;;13.67;;
14817;SDS011;7500;57.698;11.986;2023-02-08T06:37:03;35.07;;;12.23;;
14817;SDS011;7500;57.698;11.986;2023-02-08T06:39:31;42.23;;;13.87;;
14817;SDS011;7500;57.698;11.986;2023-02-08T06:41:58;37.97;;;12.90;;
14817;SDS011;7500;57.698;11.986;2023-02-08T06:44:25;29.63;;;13.43;;
14817;SDS011;7500;57.698;11.986;2023-02-08T06:46:52;40.83;;;12.80;;
14817;SDS011;7500;57.698;11.986;2023-02-08T06:49:19;32.67;;;13.37;;
14817;SDS011;7500;57.698;11.986;2023-02-08T06:51:46;38.30;;;13.67;;
14817;SDS011;7500;57.698;11.986;2023-02-08T06:54:13;38.30;;;12.40;;
14817;SDS011;7500;57.698;11.986;2023-02-08T06:56:42;29.27;;;12.37;;
14817;SDS011;7500;57.698;11.986;2023-02-08T06:59:09;30.20;;;11.57;;
14817;SDS011;7500;57.698;11.986;2023-02-08T07:01:36;24.33;;;10.87;;
14817;SDS011;7500;57.698;11.986;2023-02-08T07:04:03;22.70;;;10.63;;
14817;SDS011;7500;57.698;11.986;2023-02-08T07:06:31;29.00;;;11.40;;
14817;SDS011;7500;57.698;11.986;2023-02-08T07:08:58;25.67;;;10.47;;
14817;SDS011;7500;57.698;11.986;2023-02-08T07:11:26;26.60;;;11.47;;
14817;SDS011;7500;57.698;11.986;2023-02-08T07:13:55;29.57;;;10.90;;
14817;SDS011;7500;57.698;11.986;2023-02-08T07:16:22;28.97;;;9.50;;
14817;SDS011;7500;57.698;11.986;2023-02-08T07:18:49;25.23;;;9.37;;
14817;SDS011;7500;57.698;11.986;2023-02-08T07:21:16;31.43;;;11.00;;
14817;SDS011;7500;57.698;11.986;2023-02-08T07:23:43;29.53;;;10.27;;
14817;SDS011;7500;57.698;11.986;2023-02-08T07:26:10;26.07;;;9.57;;
14817;SDS011;7500;57.698;11.986;2023-02-08T07:28:39;34.63;;;11.80;;
14817;SDS011;7500;57.698;11.986;2023-02-08T07:31:07;29.27;;;10.87;;
14817;SDS011;7500;57.698;11.986;2023-02-08T07:33:36;29.93;;;11.23;;
14817;SDS011;7500;57.698;11.986;2023-02-08T07:36:03;27.97;;;11.63;;
14817;SDS011;7500;57.698;11.986;2023-02-08T07:38:32;27.40;;;11.33;;
14817;SDS011;7500;57.698;11.986;2023-02-08T07:41:00;31.70;;;11.13;;
14817;SDS011;7500;57.698;11.986;2023-02-08T07:43:27;32.37;;;11.17;;
14817;SDS011;7500;57.698;11.986;2023-02-08T07:45:54;37.87;;;13.10;;
14817;SDS011;7500;57.698;11.986;2023-02-08T07:48:22;31.43;;;12.30;;
14817;SDS011;7500;57.698;11.986;2023-02-08T07:50:49;37.20;;;12.60;;
14817;SDS011;7500;57.698;11.986;2023-02-08T07:53:16;34.37;;;12.27;;
14817;SDS011;7500;57.698;11.986;2023-02-08T07:55:44;29.30;;;12.37;;
14817;SDS011;7500;57.698;11.986;2023-02-08T07:58:12;36.20;;;12.00;;
14817;SDS011;7500;57.698;11.986;2023-02-08T08:00:39;34.23;;;13.20;;
14817;SDS011;7500;57.698;11.986;2023-02-08T08:03:06;31.83;;;12.20;;
14817;SDS011;7500;57.698;11.986;2023-02-08T08:05:34;34.23;;;13.03;;
14817;SDS011;7500;57.698;11.986;2023-02-08T08:08:02;31.33;;;13.13;;
14817;SDS011;7500;57.698;11.986;2023-02-08T08:10:29;36.83;;;14.10;;
14817;SDS011;7500;57.698;11.986;2023-02-08T08:12:56;39.67;;;13.50;;
14817;SDS011;7500;57.698;11.986;2023-02-08T08:15:23;31.47;;;13.60;;
14817;SDS011;7500;57.698;11.986;2023-02-08T08:17:50;37.00;;;12.97;;
14817;SDS011;7500;57.698;11.986;2023-02-08T08:20:17;37.87;;;14.67;;
14817;SDS011;7500;57.698;11.986;2023-02-08T08:22:45;34.47;;;14.07;;
14817;SDS011;7500;57.698;11.986;2023-02-08T08:25:13;36.03;;;13.57;;
14817;SDS011;7500;57.698;11.986;2023-02-08T08:27:40;40.83;;;14.50;;
14817;SDS011;7500;57.698;11.986;2023-02-08T08:30:07;39.43;;;14.27;;
14817;SDS011;7500;57.698;11.986;2023-02-08T08:32:36;39.90;;;15.00;;
14817;SDS011;7500;57.698;11.986;2023-02-08T08:35:03;31.73;;;14.20;;
14817;SDS011;7500;57.698;11.986;2023-02-08T08:37:31;30.40;;;14.47;;
14817;SDS011;7500;57.698;11.986;2023-02-08T08:39:59;40.47;;;14.33;;
14817;SDS011;7500;57.698;11.986;2023-02-08T08:42:26;33.90;;;14.40;;
14817;SDS011;7500;57.698;11.986;2023-02-08T08:44:53;33.10;;;13.80;;
14817;SDS011;7500;57.698;11.986;2023-02-08T08:47:20;28.13;;;13.43;;
14817;SDS011;7500;57.698;11.986;2023-02-08T08:49:47;29.20;;;12.40;;
14817;SDS011;7500;57.698;11.986;2023-02-08T08:52:15;39.13;;;13.43;;
14817;SDS011;7500;57.698;11.986;2023-02-08T08:54:42;38.43;;;14.93;;
14817;SDS011;7500;57.698;11.986;2023-02-08T08:57:11;34.63;;;13.30;;
14817;SDS011;7500;57.698;11.986;2023-02-08T08:59:38;34.93;;;14.20;;
14817;SDS011;7500;57.698;11.986;2023-02-08T09:02:05;33.83;;;13.83;;
14817;SDS011;7500;57.698;11.986;2023-02-08T09:04:32;31.20;;;13.33;;
14817;SDS011;7500;57.698;11.986;2023-02-08T09:06:59;35.50;;;12.90;;
14817;SDS011;7500;57.698;11.986;2023-02-08T09:09:26;30.87;;;13.27;;
14817;SDS011;7500;57.698;11.986;2023-02-08T09:11:53;27.20;;;13.20;;
14817;SDS011;7500;57.698;11.986;2023-02-08T09:14:21;32.20;;;13.10;;
14817;SDS011;7500;57.698;11.986;2023-02-08T09:16:48;37.27;;;13.50;;
14817;SDS011;7500;57.698;11.986;2023-02-08T09:19:15;27.77;;;11.60;;
14817;SDS011;7500;57.698;11.986;2023-02-08T09:21:42;30.67;;;10.33;;
14817;SDS011;7500;57.698;11.986;2023-02-08T09:24:09;30.30;;;11.87;;
14817;SDS011;7500;57.698;11.986;2023-02-08T09:26:37;34.07;;;13.00;;
14817;SDS011;7500;57.698;11.986;2023-02-08T09:29:04;32.43;;;11.90;;
14817;SDS011;7500;57.698;11.986;2023-02-08T09:31:33;31.47;;;12.87;;
14817;SDS011;7500;57.698;11.986;2023-02-08T09:34:02;29.43;;;12.30;;
14817;SDS011;7500;57.698;11.986;2023-02-08T09:36:32;29.03;;;12.23;;
14817;SDS011;7500;57.698;11.986;2023-02-08T09:39:01;30.93;;;12.03;;
14817;SDS011;7500;57.698;11.986;2023-02-08T09:41:35;25.27;;;11.57;;
14817;SDS011;7500;57.698;11.986;2023-02-08T09:44:31;30.13;;;12.13;;
14817;SDS011;7500;57.698;11.986;2023-02-08T09:47:08;26.27;;;10.67;;
14817;SDS011;7500;57.698;11.986;2023-02-08T09:49:42;26.10;;;11.00;;
14817;SDS011;7500;57.698;11.986;2023-02-08T09:52:21;25.23;;;10.93;;
14817;SDS011;7500;57.698;11.986;2023-02-08T09:54:55;31.67;;;11.23;;
14817;SDS011;7500;57.698;11.986;2023-02-08T09:57:25;27.23;;;11.30;;
14817;SDS011;7500;57.698;11.986;2023-02-08T09:59:56;29.03;;;12.27;;
14817;SDS011;7500;57.698;11.986;2023-02-08T10:02:27;27.03;;;12.23;;
14817;SDS011;7500;57.698;11.986;2023-02-08T10:04:57;29.10;;;13.00;;
14817;SDS011;7500;57.698;11.986;2023-02-08T10:07:27;31.37;;;13.40;;
14817;SDS011;7500;57.698;11.986;2023-02-08T10:09:56;30.40;;;13.80;;
14817;SDS011;7500;57.698;11.986;2023-02-08T10:12:28;32.10;;;14.23;;
14817;SDS011;7500;57.698;11.986;2023-02-08T10:15:09;34.00;;;14.67;;
14817;SDS011;7500;57.698;11.986;2023-02-08T10:17:53;34.27;;;15.60;;
14817;SDS011;7500;57.698;11.986;2023-02-08T10:20:44;30.93;;;14.53;;
14817;SDS011;7500;57.698;11.986;2023-02-08T10:23:25;31.50;;;14.40;;
14817;SDS011;7500;57.698;11.986;2023-02-08T10:26:03;32.37;;;14.60;;
14817;SDS011;7500;57.698;11.986;2023-02-08T10:28:45;34.07;;;14.47;;
14817;SDS011;7500;57.698;11.986;2023-02-08T10:31:33;30.60;;;13.77;;
14817;SDS011;7500;57.698;11.986;2023-02-08T10:34:10;25.87;;;13.93;;
14817;SDS011;7500;57.698;11.986;2023-02-08T10:36:51;27.87;;;14.73;;
14817;SDS011;7500;57.698;11.986;2023-02-08T10:39:22;30.70;;;11.90;;
14817;SDS011;7500;57.698;11.986;2023-02-08T10:41:52;29.97;;;15.23;;
14817;SDS011;7500;57.698;11.986;2023-02-08T10:44:21;29.50;;;14.57;;
14817;SDS011;7500;57.698;11.986;2023-02-08T10:46:55;33.87;;;14.87;;
14817;SDS011;7500;57.698;11.986;2023-02-08T10:49:31;29.40;;;15.03;;
14817;SDS011;7500;57.698;11.986;2023-02-08T10:52:01;33.63;;;15.00;;
14817;SDS011;7500;57.698;11.986;2023-02-08T10:54:28;34.20;;;14.70;;
14817;SDS011;7500;57.698;11.986;2023-02-08T10:56:55;33.97;;;14.53;;
14817;SDS011;7500;57.698;11.986;2023-02-08T10:59:27;30.20;;;14.77;;
14817;SDS011;7500;57.698;11.986;2023-02-08T11:01:58;27.50;;;14.73;;
14817;SDS011;7500;57.698;11.986;2023-02-08T11:04:25;28.20;;;14.80;;
14817;SDS011;7500;57.698;11.986;2023-02-08T11:06:53;31.77;;;14.70;;
14817;SDS011;7500;57.698;11.986;2023-02-08T11:09:21;27.87;;;15.27;;
14817;SDS011;7500;57.698;11.986;2023-02-08T11:11:50;29.80;;;14.93;;
14817;SDS011;7500;57.698;11.986;2023-02-08T11:14:22;26.77;;;13.90;;
14817;SDS011;7500;57.698;11.986;2023-02-08T11:16:51;30.70;;;15.13;;
14817;SDS011;7500;57.698;11.986;2023-02-08T11:19:21;28.37;;;14.07;;
14817;SDS011;7500;57.698;11.986;2023-02-08T11:21:56;30.43;;;15.10;;
14817;SDS011;7500;57.698;11.986;2023-02-08T11:24:26;28.53;;;15.63;;
14817;SDS011;7500;57.698;11.986;2023-02-08T11:26:58;26.70;;;15.07;;
14817;SDS011;7500;57.698;11.986;2023-02-08T11:29:26;30.17;;;14.90;;
14817;SDS011;7500;57.698;11.986;2023-02-08T11:31:56;30.93;;;14.37;;
14817;SDS011;7500;57.698;11.986;2023-02-08T11:34:25;24.73;;;14.20;;
14817;SDS011;7500;57.698;11.986;2023-02-08T11:36:53;28.33;;;14.73;;
14817;SDS011;7500;57.698;11.986;2023-02-08T11:39:23;32.80;;;16.10;;
14817;SDS011;7500;57.698;11.986;2023-02-08T11:41:54;28.97;;;14.80;;
14817;SDS011;7500;57.698;11.986;2023-02-08T11:44:24;30.87;;;12.00;;
14817;SDS011;7500;57.698;11.986;2023-02-08T11:46:55;27.90;;;14.60;;
14817;SDS011;7500;57.698;11.986;2023-02-08T11:49:35;32.73;;;14.90;;
14817;SDS011;7500;57.698;11.986;2023-02-08T11:52:04;33.33;;;15.03;;
14817;SDS011;7500;57.698;11.986;2023-02-08T11:54:35;25.93;;;13.70;;
14817;SDS011;7500;57.698;11.986;2023-02-08T11:57:11;33.23;;;14.67;;
14817;SDS011;7500;57.698;11.986;2023-02-08T11:59:40;23.37;;;12.50;;
14817;SDS011;7500;57.698;11.986;2023-02-08T12:02:24;24.17;;;13.90;;
14817;SDS011;7500;57.698;11.986;2023-02-08T12:04:59;22.40;;;13.50;;
14817;SDS011;7500;57.698;11.986;2023-02-08T12:07:36;28.63;;;13.13;;
14817;SDS011;7500;57.698;11.986;2023-02-08T12:13:10;23.60;;;11.23;;
14817;SDS011;7500;57.698;11.986;2023-02-08T12:15:52;29.63;;;11.50;;
14817;SDS011;7500;57.698;11.986;2023-02-08T12:18:34;20.97;;;9.80;;
14817;SDS011;7500;57.698;11.986;2023-02-08T12:21:21;20.17;;;10.90;;
14817;SDS011;7500;57.698;11.986;2023-02-08T12:23:52;24.83;;;10.37;;
14817;SDS011;7500;57.698;11.986;2023-02-08T12:26:30;20.13;;;10.53;;
14817;SDS011;7500;57.698;11.986;2023-02-08T12:29:07;20.23;;;9.30;;
14817;SDS011;7500;57.698;11.986;2023-02-08T12:31:59;20.00;;;8.67;;
14817;SDS011;7500;57.698;11.986;2023-02-08T12:34:38;24.17;;;11.27;;
14817;SDS011;7500;57.698;11.986;2023-02-08T12:37:17;21.50;;;10.27;;
14817;SDS011;7500;57.698;11.986;2023-02-08T12:40:16;22.57;;;10.07;;
14817;SDS011;7500;57.698;11.986;2023-02-08T12:43:12;19.47;;;10.63;;
14817;SDS011;7500;57.698;11.986;2023-02-08T12:46:02;20.87;;;11.40;;
14817;SDS011;7500;57.698;11.986;2023-02-08T12:48:41;21.10;;;10.97;;
14817;SDS011;7500;57.698;11.986;2023-02-08T12:51:26;19.47;;;10.43;;
14817;SDS011;7500;57.698;11.986;2023-02-08T12:54:02;21.63;;;10.80;;
14817;SDS011;7500;57.698;11.986;2023-02-08T12:56:35;24.83;;;12.10;;
14817;SDS011;7500;57.698;11.986;2023-02-08T12:59:09;18.30;;;9.97;;
14817;SDS011;7500;57.698;11.986;2023-02-08T13:01:42;21.87;;;10.50;;
14817;SDS011;7500;57.698;11.986;2023-02-08T13:04:12;24.30;;;11.27;;
14817;SDS011;7500;57.698;11.986;2023-02-08T13:06:43;22.97;;;11.50;;
14817;SDS011;7500;57.698;11.986;2023-02-08T13:09:14;26.33;;;11.30;;
14817;SDS011;7500;57.698;11.986;2023-02-08T13:11:48;19.37;;;10.43;;
14817;SDS011;7500;57.698;11.986;2023-02-08T13:14:24;24.77;;;12.90;;
14817;SDS011;7500;57.698;11.986;2023-02-08T13:16:58;20.90;;;11.37;;
14817;SDS011;7500;57.698;11.986;2023-02-08T13:19:31;26.20;;;13.37;;
14817;SDS011;7500;57.698;11.986;2023-02-08T13:22:08;20.03;;;12.23;;
14817;SDS011;7500;57.698;11.986;2023-02-08T13:24:40;27.80;;;12.77;;
14817;SDS011;7500;57.698;11.986;2023-02-08T13:27:10;28.37;;;12.70;;
14817;SDS011;7500;57.698;11.986;2023-02-08T13:29:42;23.70;;;14.40;;
14817;SDS011;7500;57.698;11.986;2023-02-08T13:32:13;25.27;;;14.07;;
14817;SDS011;7500;57.698;11.986;2023-02-08T13:34:46;29.37;;;16.40;;
14817;SDS011;7500;57.698;11.986;2023-02-08T13:37:18;28.63;;;16.43;;
14817;SDS011;7500;57.698;11.986;2023-02-08T13:39:47;26.73;;;16.40;;
14817;SDS011;7500;57.698;11.986;2023-02-08T13:42:20;28.63;;;18.00;;
14817;SDS011;7500;57.698;11.986;2023-02-08T13:44:54;28.77;;;17.83;;
14817;SDS011;7500;57.698;11.986;2023-02-08T13:47:24;29.77;;;17.97;;
14817;SDS011;7500;57.698;11.986;2023-02-08T13:49:54;34.50;;;18.00;;
14817;SDS011;7500;57.698;11.986;2023-02-08T14:01:28;29.60;;;17.43;;
14817;SDS011;7500;57.698;11.986;2023-02-08T14:06:44;27.03;;;16.53;;
14817;SDS011;7500;57.698;11.986;2023-02-08T14:09:17;27.07;;;16.33;;
14817;SDS011;7500;57.698;11.986;2023-02-08T14:11:48;26.87;;;17.13;;
14817;SDS011;7500;57.698;11.986;2023-02-08T14:14:19;28.53;;;16.97;;
14817;SDS011;7500;57.698;11.986;2023-02-08T14:19:43;27.50;;;17.77;;
14817;SDS011;7500;57.698;11.986;2023-02-08T14:22:14;29.77;;;17.37;;
14817;SDS011;7500;57.698;11.986;2023-02-08T14:24:45;31.50;;;17.33;;
14817;SDS011;7500;57.698;11.986;2023-02-08T14:27:18;28.93;;;18.63;;
14817;SDS011;7500;57.698;11.986;2023-02-08T14:29:54;29.13;;;17.37;;
14817;SDS011;7500;57.698;11.986;2023-02-08T14:32:26;26.03;;;17.23;;
14817;SDS011;7500;57.698;11.986;2023-02-08T14:34:59;30.00;;;18.27;;
14817;SDS011;7500;57.698;11.986;2023-02-08T14:37:30;32.57;;;17.80;;
14817;SDS011;7500;57.698;11.986;2023-02-08T14:42:59;30.57;;;18.00;;
14817;SDS011;7500;57.698;11.986;2023-02-08T14:45:30;28.60;;;18.93;;
14817;SDS011;7500;57.698;11.986;2023-02-08T14:50:55;28.33;;;17.70;;
14817;SDS011;7500;57.698;11.986;2023-02-08T14:53:43;34.53;;;18.10;;
14817;SDS011;7500;57.698;11.986;2023-02-08T14:56:15;26.13;;;16.83;;
14817;SDS011;7500;57.698;11.986;2023-02-08T14:58:48;27.83;;;16.47;;
14817;SDS011;7500;57.698;11.986;2023-02-08T15:01:18;36.40;;;20.33;;
14817;SDS011;7500;57.698;11.986;2023-02-08T15:03:49;28.10;;;17.80;;
14817;SDS011;7500;57.698;11.986;2023-02-08T15:06:32;29.43;;;18.97;;
14817;SDS011;7500;57.698;11.986;2023-02-08T15:09:27;29.40;;;18.20;;
14817;SDS011;7500;57.698;11.986;2023-02-08T15:11:58;31.23;;;20.10;;
14817;SDS011;7500;57.698;11.986;2023-02-08T15:14:27;29.17;;;17.30;;
14817;SDS011;7500;57.698;11.986;2023-02-08T15:16:55;30.20;;;18.57;;